createdAt,value
2023-09-02T00:01:22.809Z,19.09
2023-09-02T00:04:47.907Z,19.059999
2023-09-02T00:08:13.066Z,19.02
2023-09-02T00:11:38.253Z,19
2023-09-02T00:15:03.428Z,19
2023-09-02T00:18:28.619Z,18.98
2023-09-02T00:21:53.747Z,18.959999
2023-09-02T00:25:18.930Z,18.950001
2023-09-02T00:28:44.099Z,18.93
2023-09-02T00:32:09.299Z,18.92
2023-09-02T00:35:34.488Z,18.93
2023-09-02T00:38:59.621Z,18.93
2023-09-02T00:42:24.792Z,18.940001
2023-09-02T00:45:50.011Z,18.950001
2023-09-02T00:49:15.161Z,18.950001
2023-09-02T00:52:40.358Z,18.959999
2023-09-02T00:56:05.507Z,18.950001
2023-09-02T00:59:30.662Z,18.969999
2023-09-02T01:02:55.928Z,18.99
2023-09-02T01:06:20.990Z,18.98
2023-09-02T01:09:46.175Z,18.969999
2023-09-02T01:13:11.302Z,18.98
2023-09-02T01:16:36.486Z,18.959999
2023-09-02T01:20:01.660Z,18.93
2023-09-02T01:23:26.836Z,18.92
2023-09-02T01:26:52.088Z,18.91
2023-09-02T01:30:17.172Z,18.870001
2023-09-02T01:33:42.349Z,18.84
2023-09-02T01:37:07.518Z,18.84
2023-09-02T01:40:32.683Z,18.799999
2023-09-02T01:43:57.880Z,18.77
2023-09-02T01:47:23.024Z,18.75
2023-09-02T01:50:48.165Z,18.700001
2023-09-02T01:54:13.312Z,18.67
2023-09-02T01:57:38.478Z,18.620001
2023-09-02T02:01:03.708Z,18.559999
2023-09-02T02:04:28.816Z,18.52
2023-09-02T02:07:53.950Z,18.469999
2023-09-02T02:11:19.151Z,18.389999
2023-09-02T02:14:44.299Z,18.32
2023-09-02T02:18:09.522Z,18.27
2023-09-02T02:21:34.655Z,18.23
2023-09-02T02:24:59.822Z,18.209999
2023-09-02T02:28:24.993Z,18.190001
2023-09-02T02:31:50.192Z,18.16
2023-09-02T02:35:15.352Z,18.129999
2023-09-02T02:38:40.508Z,18.09
2023-09-02T02:42:05.697Z,18.059999
2023-09-02T02:45:30.873Z,18.01
2023-09-02T02:48:56.040Z,17.959999
2023-09-02T02:52:21.245Z,17.93
2023-09-02T02:55:46.387Z,17.92
2023-09-02T02:59:11.542Z,17.92
2023-09-02T03:02:36.819Z,17.92
2023-09-02T03:06:01.878Z,17.91
2023-09-02T03:09:27.076Z,17.91
2023-09-02T03:12:52.202Z,17.91
2023-09-02T03:16:17.392Z,17.889999
2023-09-02T03:19:42.537Z,17.85
2023-09-02T03:23:07.719Z,17.809999
2023-09-02T03:26:32.910Z,17.76
2023-09-02T03:29:58.065Z,17.75
2023-09-02T03:33:23.254Z,17.75
2023-09-02T03:36:48.397Z,17.76
2023-09-02T03:40:13.565Z,17.76
2023-09-02T03:43:38.748Z,17.799999
2023-09-02T03:47:03.926Z,17.82
2023-09-02T03:50:29.044Z,17.860001
2023-09-02T03:53:54.212Z,17.889999
2023-09-02T03:57:19.365Z,17.9
2023-09-02T04:00:44.576Z,17.92
2023-09-02T04:04:09.826Z,17.92
2023-09-02T04:07:34.869Z,17.889999
2023-09-02T04:11:00.064Z,17.93
2023-09-02T04:14:25.341Z,17.959999
2023-09-02T04:17:50.486Z,18.01
2023-09-02T04:21:15.583Z,18.049999
2023-09-02T04:24:40.760Z,18.07
2023-09-02T04:28:05.930Z,18.1
2023-09-02T04:31:31.090Z,18.110001
2023-09-02T04:34:56.283Z,18.1
2023-09-02T04:38:21.491Z,18.09
2023-09-02T04:41:46.609Z,18.1
2023-09-02T04:45:11.826Z,18.110001
2023-09-02T04:48:36.998Z,18.110001
2023-09-02T04:52:02.190Z,18.120001
2023-09-02T04:55:27.333Z,18.17
2023-09-02T04:58:52.491Z,18.200001
2023-09-02T05:02:17.654Z,18.209999
2023-09-02T05:05:42.838Z,18.25
2023-09-02T05:09:08.007Z,18.299999
2023-09-02T05:12:33.114Z,18.33
2023-09-02T05:15:58.335Z,18.35
2023-09-02T05:19:23.461Z,18.360001
2023-09-02T05:22:48.621Z,18.360001
2023-09-02T05:26:13.857Z,18.370001
2023-09-02T05:29:38.954Z,18.370001
2023-09-02T05:33:04.146Z,18.389999
2023-09-02T05:36:29.264Z,18.389999
2023-09-02T05:39:54.457Z,18.4
2023-09-02T05:43:20.620Z,18.440001
2023-09-02T05:46:45.666Z,18.5
2023-09-02T05:50:10.828Z,18.540001
2023-09-02T05:53:36.007Z,18.610001
2023-09-02T05:57:01.164Z,18.639999
2023-09-02T06:00:26.473Z,18.629999
2023-09-02T06:03:51.596Z,18.65
2023-09-02T06:07:16.818Z,18.68
2023-09-02T06:10:42.022Z,18.67
2023-09-02T06:14:07.206Z,18.68
2023-09-02T06:17:32.387Z,18.690001
2023-09-02T06:20:57.537Z,18.73
2023-09-02T06:24:22.692Z,18.709999
2023-09-02T06:27:47.876Z,18.75
2023-09-02T06:31:13.049Z,18.799999
2023-09-02T06:34:38.236Z,18.860001
2023-09-02T06:38:03.396Z,18.889999
2023-09-02T06:41:28.550Z,18.940001
2023-09-02T06:45:15.323Z,19
2023-09-02T06:48:40.724Z,19.030001
2023-09-02T06:52:05.900Z,19.030001
2023-09-02T06:55:31.051Z,19.030001
2023-09-02T06:58:56.258Z,19.01
2023-09-02T07:02:21.446Z,18.99
2023-09-02T07:05:46.595Z,19.02
2023-09-02T07:09:11.807Z,19.049999
2023-09-02T07:12:36.980Z,19.09
2023-09-02T07:16:02.149Z,19.16
2023-09-02T07:19:27.360Z,19.23
2023-09-02T07:22:52.538Z,19.33
2023-09-02T07:26:17.782Z,19.440001
2023-09-02T07:29:42.930Z,19.549999
2023-09-02T07:33:08.099Z,19.639999
2023-09-02T07:36:33.241Z,19.719999
2023-09-02T07:39:58.434Z,19.75
2023-09-02T07:43:23.786Z,19.790001
2023-09-02T07:46:48.939Z,19.809999
2023-09-02T07:50:14.118Z,19.799999
2023-09-02T07:53:39.293Z,19.82
2023-09-02T07:57:04.474Z,19.82
2023-09-02T08:00:29.674Z,19.84
2023-09-02T08:03:54.845Z,19.91
2023-09-02T08:07:20.001Z,19.98
2023-09-02T08:10:45.181Z,20.040001
2023-09-02T08:14:10.389Z,20.059999
2023-09-02T08:17:35.594Z,20.08
2023-09-02T08:21:00.717Z,20.040001
2023-09-02T08:24:25.863Z,20.059999
2023-09-02T08:27:51.023Z,20.120001
2023-09-02T08:31:16.195Z,20.16
2023-09-02T08:34:41.379Z,20.17
2023-09-02T08:38:06.530Z,20.139999
2023-09-02T08:41:31.766Z,20.120001
2023-09-02T08:44:56.939Z,20.09
2023-09-02T08:48:23.727Z,20.129999
2023-09-02T08:51:47.285Z,20.18
2023-09-02T08:55:13.047Z,20.209999
2023-09-02T08:58:37.642Z,20.27
2023-09-02T09:02:02.799Z,20.32
2023-09-02T09:05:27.963Z,20.35
2023-09-02T09:08:53.168Z,20.370001
2023-09-02T09:12:18.323Z,20.42
2023-09-02T09:15:43.478Z,20.51
2023-09-02T09:19:10.364Z,20.610001
2023-09-02T09:22:33.821Z,20.73
2023-09-02T09:25:59.024Z,20.83
2023-09-02T09:29:24.167Z,20.91
2023-09-02T09:32:49.404Z,20.93
2023-09-02T09:36:14.617Z,20.91
2023-09-02T09:39:39.778Z,20.860001
2023-09-02T09:43:04.941Z,20.809999
2023-09-02T09:46:30.191Z,20.76
2023-09-02T09:49:55.409Z,20.719999
2023-09-02T09:53:20.793Z,20.75
2023-09-02T09:56:45.855Z,20.780001
2023-09-02T10:00:11.120Z,20.879999
2023-09-02T10:03:36.272Z,20.99
2023-09-02T10:07:01.506Z,21.129999
2023-09-02T10:10:26.732Z,21.26
2023-09-02T10:13:51.957Z,21.440001
2023-09-02T10:17:17.174Z,21.6
2023-09-02T10:20:42.308Z,21.799999
2023-09-02T10:24:07.506Z,22.01
2023-09-02T10:27:32.700Z,22.16
2023-09-02T10:30:57.864Z,22.190001
2023-09-02T10:34:23.060Z,22.15
2023-09-02T10:37:48.209Z,22.049999
2023-09-02T10:41:13.417Z,21.860001
2023-09-02T10:44:38.598Z,21.77
2023-09-02T10:48:03.757Z,21.700001
2023-09-02T10:51:28.972Z,21.709999
2023-09-02T10:54:54.128Z,21.77
2023-09-02T10:58:19.292Z,22.08
2023-09-02T11:01:44.476Z,22.309999
2023-09-02T11:05:09.681Z,22.370001
2023-09-02T11:08:34.897Z,22.41
2023-09-02T11:12:00.143Z,22.389999
2023-09-02T11:15:25.321Z,22.33
2023-09-02T11:18:50.544Z,22.26
2023-09-02T11:22:15.730Z,22.17
2023-09-02T11:25:40.946Z,22.15
2023-09-02T11:29:06.151Z,22.290001
2023-09-02T11:32:31.388Z,22.42
2023-09-02T11:35:56.613Z,22.5
2023-09-02T11:39:21.835Z,22.65
2023-09-02T11:42:47.050Z,22.82
2023-09-02T11:46:12.254Z,22.99
2023-09-02T11:49:37.468Z,23.1
2023-09-02T11:53:02.698Z,23.120001
2023-09-02T11:56:27.924Z,23.030001
2023-09-02T11:59:53.187Z,23.049999
2023-09-02T12:03:18.619Z,23.15
2023-09-02T12:06:43.627Z,23.32
2023-09-02T12:10:08.847Z,23.450001
2023-09-02T12:13:34.064Z,23.4
2023-09-02T12:16:59.292Z,23.26
2023-09-02T12:20:24.453Z,23.190001
2023-09-02T12:23:49.677Z,23.030001
2023-09-02T12:27:14.876Z,23.059999
2023-09-02T12:30:40.102Z,23.129999
2023-09-02T12:34:05.309Z,23.200001
2023-09-02T12:37:30.584Z,23.18
2023-09-02T12:40:55.789Z,23.209999
2023-09-02T12:44:20.970Z,23.18
2023-09-02T12:47:46.174Z,23.26
2023-09-02T12:51:11.374Z,23.18
2023-09-02T12:54:36.535Z,23.1
2023-09-02T12:58:01.780Z,22.99
2023-09-02T13:01:27.023Z,23
2023-09-02T13:04:52.185Z,22.99
2023-09-02T13:08:17.422Z,22.950001
2023-09-02T13:11:42.591Z,22.959999
2023-09-02T13:15:07.781Z,23.08
2023-09-02T13:18:33.021Z,23.200001
2023-09-02T13:21:58.194Z,23.25
2023-09-02T13:25:23.436Z,23.299999
2023-09-02T13:28:48.610Z,23.25
2023-09-02T13:32:13.817Z,23.120001
2023-09-02T13:35:39.007Z,23.040001
2023-09-02T13:39:04.191Z,22.950001
2023-09-02T13:42:29.445Z,22.870001
2023-09-02T13:45:54.608Z,22.860001
2023-09-02T13:49:19.766Z,22.950001
2023-09-02T13:52:44.932Z,22.950001
2023-09-02T13:56:10.133Z,22.9
2023-09-02T13:59:35.393Z,22.889999
2023-09-02T14:03:00.641Z,22.940001
2023-09-02T14:06:25.792Z,23.049999
2023-09-02T14:09:50.975Z,23.09
2023-09-02T14:13:16.217Z,23.15
2023-09-02T14:16:41.404Z,23.18
2023-09-02T14:20:06.575Z,23.26
2023-09-02T14:23:31.757Z,23.35
2023-09-02T14:26:56.952Z,23.42
2023-09-02T14:30:22.146Z,23.52
2023-09-02T14:33:48.004Z,23.469999
2023-09-02T14:37:13.168Z,23.440001
2023-09-02T14:40:38.341Z,23.459999
2023-09-02T14:44:03.543Z,23.51
2023-09-02T14:47:28.730Z,23.610001
2023-09-02T14:50:53.878Z,23.639999
2023-09-02T14:54:19.035Z,23.549999
2023-09-02T14:57:44.234Z,23.42
2023-09-02T15:01:09.417Z,23.32
2023-09-02T15:04:34.593Z,23.219999
2023-09-02T15:07:59.805Z,23.129999
2023-09-02T15:11:24.977Z,23.030001
2023-09-02T15:46:11.069Z,20.219999
2023-09-02T15:49:36.259Z,21.129999
2023-09-02T15:53:01.440Z,21.33
2023-09-02T15:56:26.650Z,21.5
2023-09-02T15:59:51.850Z,21.66
2023-09-02T16:03:17.216Z,21.780001
2023-09-02T16:06:42.252Z,21.889999
2023-09-02T16:10:07.445Z,21.99
2023-09-02T16:13:32.635Z,22.07
2023-09-02T16:16:57.871Z,22.110001
2023-09-02T16:20:23.413Z,22.16
2023-09-02T16:23:48.576Z,22.17
2023-09-02T16:27:13.764Z,22.190001
2023-09-02T16:30:38.962Z,22.23
2023-09-02T16:34:04.166Z,22.26
2023-09-02T16:37:29.383Z,22.280001
2023-09-02T16:40:54.537Z,22.27
2023-09-02T16:44:19.693Z,22.26
2023-09-02T16:47:44.973Z,22.23
2023-09-02T16:51:10.130Z,22.219999
2023-09-02T16:54:35.356Z,22.200001
2023-09-02T16:58:00.517Z,22.200001
2023-09-02T17:01:25.702Z,22.17
2023-09-02T17:04:50.888Z,22.139999
2023-09-02T17:08:16.119Z,22.120001
2023-09-02T17:11:41.356Z,22.07
2023-09-02T17:15:06.526Z,22
2023-09-02T17:18:31.737Z,21.969999
2023-09-02T17:21:56.969Z,21.940001
2023-09-02T17:25:22.147Z,21.92
2023-09-02T17:28:47.385Z,21.9
2023-09-02T17:32:12.593Z,21.870001
2023-09-02T17:35:37.802Z,21.84
2023-09-02T17:39:03.021Z,21.82
2023-09-02T17:42:28.227Z,21.790001
2023-09-02T17:45:53.505Z,21.74
2023-09-02T17:49:18.648Z,21.700001
2023-09-02T17:52:43.861Z,21.66
2023-09-02T17:56:09.112Z,21.59
2023-09-02T17:59:34.318Z,21.549999
2023-09-02T18:02:59.593Z,21.49
2023-09-02T18:06:24.894Z,21.41
2023-09-02T18:09:50.070Z,21.33
2023-09-02T18:13:15.242Z,21.24
2023-09-02T18:16:40.455Z,21.200001
2023-09-02T18:20:05.648Z,21.16
2023-09-02T18:23:30.779Z,21.08
2023-09-02T18:26:55.952Z,20.98
2023-09-02T18:30:21.144Z,20.879999
2023-09-02T18:33:46.276Z,20.809999
2023-09-02T18:37:11.494Z,20.780001
2023-09-02T18:40:36.640Z,20.75
2023-09-02T18:44:01.834Z,20.73
2023-09-02T18:47:27.056Z,20.75
2023-09-02T18:50:52.209Z,20.76
2023-09-02T18:54:17.395Z,20.74
2023-09-02T18:57:42.574Z,20.77
2023-09-02T19:01:07.758Z,20.809999
2023-09-02T19:04:32.962Z,20.84
2023-09-02T19:07:58.132Z,20.83
2023-09-02T19:11:23.343Z,20.84
2023-09-02T19:14:48.541Z,20.879999
2023-09-02T19:18:13.763Z,20.889999
2023-09-02T19:21:38.970Z,20.92
2023-09-02T19:25:04.172Z,20.940001
2023-09-02T19:28:29.365Z,20.940001
2023-09-02T19:31:54.506Z,20.9
2023-09-02T19:35:19.702Z,20.85
2023-09-02T19:38:44.915Z,20.809999
2023-09-02T19:42:10.083Z,20.75
2023-09-02T19:45:35.297Z,20.74
2023-09-02T19:49:00.444Z,20.74
2023-09-02T19:52:25.642Z,20.77
2023-09-02T19:55:50.826Z,20.76
2023-09-02T19:59:16.018Z,20.75
2023-09-02T20:02:41.211Z,20.76
2023-09-02T20:06:06.338Z,20.73
2023-09-02T20:09:31.507Z,20.690001
2023-09-02T20:12:56.690Z,20.65
2023-09-02T20:16:21.948Z,20.629999
2023-09-02T20:19:47.059Z,20.610001
2023-09-02T20:23:12.221Z,20.6
2023-09-02T20:26:37.393Z,20.59
2023-09-02T20:30:02.550Z,20.58
2023-09-02T20:33:27.712Z,20.559999
2023-09-02T20:36:52.884Z,20.549999
2023-09-02T20:40:18.011Z,20.51
2023-09-02T20:43:43.184Z,20.49
2023-09-02T20:47:08.325Z,20.469999
2023-09-02T20:50:33.473Z,20.440001
2023-09-02T20:53:58.729Z,20.43
2023-09-02T20:57:23.805Z,20.42
2023-09-02T21:00:48.990Z,20.370001
2023-09-02T21:04:16.860Z,20.32
2023-09-02T21:07:39.457Z,20.24
2023-09-02T21:11:04.684Z,20.190001
2023-09-02T21:14:29.809Z,20.1
2023-09-02T21:17:55.038Z,20
2023-09-02T21:21:20.169Z,19.879999
2023-09-02T21:24:45.326Z,19.76
2023-09-02T21:28:10.540Z,19.690001
2023-09-02T21:31:35.752Z,19.67
2023-09-02T21:35:00.924Z,19.620001
2023-09-02T21:38:26.115Z,19.559999
2023-09-02T21:41:51.309Z,19.530001
2023-09-02T21:45:16.520Z,19.5
2023-09-02T21:48:41.663Z,19.49
2023-09-02T21:52:06.853Z,19.5
2023-09-02T21:55:32.048Z,19.52
2023-09-02T21:58:57.248Z,19.540001
2023-09-02T22:02:22.459Z,19.51
2023-09-02T22:05:47.842Z,19.49
2023-09-02T22:09:13.025Z,19.459999
2023-09-02T22:12:38.206Z,19.469999
2023-09-02T22:16:03.457Z,19.52
2023-09-02T22:19:28.615Z,19.57
2023-09-02T22:22:53.762Z,19.629999
2023-09-02T22:26:18.904Z,19.65
2023-09-02T22:29:44.108Z,19.719999
2023-09-02T22:33:09.308Z,19.719999
2023-09-02T22:36:34.506Z,19.74
2023-09-02T22:39:59.645Z,19.74
2023-09-02T22:43:24.806Z,19.700001
2023-09-02T22:46:50.007Z,19.709999
2023-09-02T22:50:15.187Z,19.74
2023-09-02T22:53:40.674Z,19.76
2023-09-02T22:57:05.546Z,19.780001
2023-09-02T23:00:30.729Z,19.77
2023-09-02T23:03:55.907Z,19.76
2023-09-02T23:07:21.099Z,19.700001
2023-09-02T23:10:46.313Z,19.639999
2023-09-02T23:14:11.485Z,19.59
2023-09-02T23:17:36.693Z,19.59
2023-09-02T23:21:01.829Z,19.6
2023-09-02T23:24:27.016Z,19.6
2023-09-02T23:27:52.230Z,19.58
2023-09-02T23:31:17.393Z,19.559999
2023-09-02T23:34:42.582Z,19.540001
2023-09-02T23:38:07.748Z,19.530001
2023-09-02T23:41:32.935Z,19.5
2023-09-02T23:44:58.171Z,19.48
2023-09-02T23:48:23.462Z,19.43
2023-09-02T23:51:48.434Z,19.370001
2023-09-02T23:55:13.636Z,19.33
2023-09-02T23:58:38.789Z,19.25
